createdAt,value
2022-12-01T00:02:14.705Z,48.57
2022-12-01T00:05:17.754Z,56.33
2022-12-01T00:08:20.443Z,51.78
2022-12-01T00:11:23.398Z,54.55
2022-12-01T00:14:25.952Z,53.15
2022-12-01T00:17:30.378Z,46.83
2022-12-01T00:20:34.982Z,53.80
2022-12-01T00:23:37.840Z,52.28
2022-12-01T00:26:41.124Z,56.47
2022-12-01T00:29:44.146Z,51.08
2022-12-01T00:32:47.404Z,50.53
2022-12-01T00:35:57.883Z,51.73
2022-12-01T00:39:00.525Z,54.08
2022-12-01T00:42:04.657Z,59.38
2022-12-01T00:45:09.710Z,59.47
2022-12-01T00:48:12.630Z,52.17
2022-12-01T00:51:15.301Z,47.60
2022-12-01T00:54:18.255Z,52.17
2022-12-01T00:57:21.002Z,51.13
2022-12-01T01:00:25.113Z,50.92
2022-12-01T01:03:29.570Z,53.90
2022-12-01T01:06:32.654Z,47.20
2022-12-01T01:09:35.329Z,49.60
2022-12-01T01:12:39.544Z,47.20
2022-12-01T01:15:42.321Z,47.72
2022-12-01T01:18:45.880Z,49.70
2022-12-01T01:21:49.722Z,50.33
2022-12-01T01:24:52.668Z,44.85
2022-12-01T01:27:55.258Z,47.60
2022-12-01T01:30:58.845Z,45.40
2022-12-01T01:34:01.557Z,49.50
2022-12-01T01:37:07.871Z,42.47
2022-12-01T01:40:11.018Z,44.88
2022-12-01T01:43:19.070Z,46.85
2022-12-01T01:46:26.555Z,42.20
2022-12-01T01:49:29.562Z,47.17
2022-12-01T01:52:36.117Z,44.33
2022-12-01T01:55:39.324Z,43.63
2022-12-01T01:58:42.846Z,45.97
2022-12-01T02:01:56.393Z,45.05
2022-12-01T02:05:02.937Z,43.50
2022-12-01T02:08:06.408Z,51.53
2022-12-01T02:11:28.131Z,48.25
2022-12-01T02:14:30.736Z,51.65
2022-12-01T02:17:57.047Z,40.12
2022-12-01T02:21:24.895Z,45.97
2022-12-01T02:24:51.056Z,48.20
2022-12-01T02:28:14.526Z,43.70
2022-12-01T02:31:25.845Z,41.80
2022-12-01T02:34:34.868Z,44.75
2022-12-01T02:37:46.553Z,44.00
2022-12-01T02:40:56.065Z,45.67
2022-12-01T02:44:31.451Z,46.20
2022-12-01T02:47:36.718Z,46.55
2022-12-01T02:50:40.906Z,43.80
2022-12-01T02:53:44.574Z,42.73
2022-12-01T02:56:52.323Z,39.70
2022-12-01T02:59:55.627Z,41.92
2022-12-01T03:03:27.599Z,43.63
2022-12-01T03:07:02.682Z,43.67
2022-12-01T03:10:17.914Z,51.13
2022-12-01T03:13:40.728Z,45.22
2022-12-01T03:16:53.934Z,37.72
2022-12-01T03:20:08.852Z,44.05
2022-12-01T03:23:16.823Z,46.15
2022-12-01T03:26:23.599Z,43.10
2022-12-01T03:29:32.064Z,43.40
2022-12-01T03:32:50.588Z,39.53
2022-12-01T03:36:03.410Z,34.45
2022-12-01T03:39:12.408Z,37.05
2022-12-01T03:42:23.716Z,46.97
2022-12-01T03:45:47.918Z,45.50
2022-12-01T03:48:54.459Z,40.95
2022-12-01T03:52:18.525Z,48.55
2022-12-01T03:55:37.909Z,42.72
2022-12-01T03:58:45.568Z,40.60
2022-12-01T04:01:48.869Z,44.53
2022-12-01T04:04:51.899Z,46.08
2022-12-01T04:07:54.714Z,41.70
2022-12-01T04:10:57.689Z,44.83
2022-12-01T04:14:00.369Z,38.27
2022-12-01T04:17:03.366Z,38.28
2022-12-01T04:20:10.278Z,48.05
2022-12-01T04:23:36.395Z,41.75
2022-12-01T04:26:40.309Z,51.83
2022-12-01T04:29:43.239Z,43.70
2022-12-01T04:32:45.897Z,42.30
2022-12-01T04:36:01.710Z,46.30
2022-12-01T04:39:04.533Z,46.08
2022-12-01T04:42:07.896Z,39.20
2022-12-01T04:45:10.712Z,42.30
2022-12-01T04:48:17.732Z,45.53
2022-12-01T04:51:23.894Z,49.60
2022-12-01T04:54:27.171Z,35.75
2022-12-01T04:57:29.979Z,47.25
2022-12-01T05:00:33.629Z,41.78
2022-12-01T05:03:38.663Z,42.25
2022-12-01T05:06:41.670Z,39.10
2022-12-01T05:09:44.233Z,47.38
2022-12-01T05:12:47.111Z,40.97
2022-12-01T05:15:49.896Z,40.10
2022-12-01T05:19:16.031Z,52.58
2022-12-01T05:22:31.450Z,42.60
2022-12-01T05:25:42.674Z,46.37
2022-12-01T05:28:45.272Z,47.17
2022-12-01T05:31:48.283Z,48.75
2022-12-01T05:34:51.010Z,42.88
2022-12-01T05:37:53.965Z,49.05
2022-12-01T05:40:56.740Z,52.40
2022-12-01T05:43:59.690Z,56.37
2022-12-01T05:47:04.887Z,85.25
2022-12-01T05:50:08.627Z,52.67
2022-12-01T05:53:13.159Z,48.40
2022-12-01T05:56:15.990Z,42.10
2022-12-01T05:59:18.531Z,59.35
2022-12-01T06:02:22.000Z,51.97
2022-12-01T06:05:26.356Z,62.92
2022-12-01T06:08:28.980Z,51.93
2022-12-01T06:11:31.928Z,55.00
2022-12-01T06:14:34.431Z,51.90
2022-12-01T06:17:40.372Z,59.63
2022-12-01T06:20:43.425Z,61.00
2022-12-01T06:23:46.405Z,73.87
2022-12-01T06:26:49.091Z,65.43
2022-12-01T06:29:53.169Z,63.33
2022-12-01T06:32:55.994Z,63.80
2022-12-01T06:36:05.522Z,61.58
2022-12-01T06:39:12.479Z,63.33
2022-12-01T06:42:15.692Z,55.20
2022-12-01T06:45:18.430Z,83.65
2022-12-01T06:48:21.472Z,88.75
2022-12-01T06:51:24.102Z,65.47
2022-12-01T06:54:28.394Z,67.37
2022-12-01T06:57:31.580Z,60.53
2022-12-01T07:00:34.509Z,61.70
2022-12-01T07:03:39.098Z,64.50
2022-12-01T07:06:42.690Z,67.17
2022-12-01T07:09:45.575Z,61.83
2022-12-01T07:12:48.553Z,67.80
2022-12-01T07:15:52.131Z,70.30
2022-12-01T07:18:55.138Z,57.53
2022-12-01T07:21:57.726Z,55.53
2022-12-01T07:25:00.625Z,57.88
2022-12-01T07:28:04.517Z,55.10
2022-12-01T07:31:13.862Z,49.20
2022-12-01T07:34:16.505Z,51.47
2022-12-01T07:37:19.454Z,49.03
2022-12-01T07:40:22.272Z,53.90
2022-12-01T07:43:25.294Z,57.72
2022-12-01T07:46:29.026Z,54.28
2022-12-01T07:49:32.098Z,51.37
2022-12-01T07:52:34.667Z,54.53
2022-12-01T07:55:37.712Z,50.40
2022-12-01T07:58:40.565Z,51.97
2022-12-01T08:01:44.888Z,65.07
2022-12-01T08:04:47.954Z,66.07
2022-12-01T08:07:50.625Z,61.00
2022-12-01T08:10:53.981Z,67.05
2022-12-01T08:13:56.963Z,53.47
2022-12-01T08:16:59.892Z,50.67
2022-12-01T08:20:02.625Z,45.73
2022-12-01T08:23:05.605Z,47.00
2022-12-01T08:26:13.021Z,41.45
2022-12-01T08:29:20.081Z,43.58
2022-12-01T08:32:23.186Z,40.15
2022-12-01T08:35:26.180Z,38.30
2022-12-01T09:57:37.033Z,20.37
2022-12-01T10:00:43.966Z,19.65
2022-12-01T10:03:54.721Z,21.23
2022-12-01T10:07:25.336Z,20.33
2022-12-01T10:10:38.328Z,20.35
2022-12-01T10:13:43.746Z,21.42
2022-12-01T10:17:15.305Z,20.67
2022-12-01T10:20:22.557Z,23.90
2022-12-01T10:23:40.606Z,20.65
2022-12-01T10:26:57.949Z,23.10
2022-12-01T10:30:10.302Z,22.00
2022-12-01T10:33:41.854Z,23.62
2022-12-01T10:36:44.861Z,26.50
2022-12-01T10:39:51.990Z,21.67
2022-12-01T10:42:55.503Z,22.05
2022-12-01T10:46:01.573Z,20.35
2022-12-01T10:49:16.273Z,23.25
2022-12-01T10:52:41.558Z,22.73
2022-12-01T10:55:48.170Z,21.87
2022-12-01T10:58:55.378Z,24.00
2022-12-01T11:01:59.783Z,20.12
2022-12-01T11:05:18.785Z,23.25
2022-12-01T11:08:46.997Z,20.80
2022-12-01T11:12:01.787Z,19.92
2022-12-01T11:15:05.629Z,21.48
2022-12-01T11:18:29.974Z,21.12
2022-12-01T11:21:33.137Z,19.48
2022-12-01T11:24:55.386Z,20.57
2022-12-01T11:28:02.123Z,21.12
2022-12-01T11:31:10.983Z,21.00
2022-12-01T11:34:25.692Z,20.00
2022-12-01T11:37:38.150Z,19.25
2022-12-01T11:40:58.761Z,17.20
2022-12-01T11:44:09.157Z,15.98
2022-12-01T11:47:24.640Z,17.73
2022-12-01T11:50:31.778Z,20.30
2022-12-01T11:53:37.599Z,18.85
2022-12-01T11:56:41.963Z,18.40
2022-12-01T11:59:45.108Z,20.92
2022-12-01T12:03:20.686Z,19.58
2022-12-01T12:06:39.853Z,18.80
2022-12-01T12:09:51.013Z,16.85
2022-12-01T12:13:09.788Z,17.33
2022-12-01T12:16:50.893Z,18.23
2022-12-01T12:20:27.794Z,16.73
2022-12-01T12:23:35.136Z,19.37
2022-12-01T12:26:50.438Z,17.40
2022-12-01T12:29:53.104Z,19.53
2022-12-01T12:33:19.859Z,17.33
2022-12-01T12:36:28.026Z,17.85
2022-12-01T12:39:47.842Z,19.00
2022-12-01T12:43:07.034Z,18.37
2022-12-01T12:46:23.131Z,20.10
2022-12-01T12:49:35.872Z,20.73
2022-12-01T12:52:54.517Z,21.55
2022-12-01T12:56:04.987Z,23.85
2022-12-01T12:59:35.491Z,21.37
2022-12-01T13:02:44.422Z,19.97
2022-12-01T13:06:00.785Z,20.27
2022-12-01T13:09:11.551Z,24.05
2022-12-01T13:12:17.327Z,17.62
2022-12-01T13:15:21.607Z,22.37
2022-12-01T13:18:39.773Z,19.93
2022-12-01T13:21:45.363Z,19.70
2022-12-01T13:24:48.481Z,21.62
2022-12-01T13:27:52.594Z,23.70
2022-12-01T13:31:01.949Z,24.75
2022-12-01T13:34:06.263Z,20.73
2022-12-01T13:37:11.735Z,21.73
2022-12-01T13:40:28.244Z,23.75
2022-12-01T13:43:32.273Z,22.83
2022-12-01T13:46:45.456Z,22.23
2022-12-01T13:49:50.199Z,21.93
2022-12-01T13:53:13.118Z,22.20
2022-12-01T13:56:15.971Z,23.17
2022-12-01T14:00:00.579Z,18.48
2022-12-01T14:03:12.837Z,22.05
2022-12-01T14:06:49.367Z,25.10
2022-12-01T14:09:56.452Z,30.73
2022-12-01T14:13:05.487Z,24.92
2022-12-01T14:16:08.858Z,27.65
2022-12-01T14:19:33.264Z,29.90
2022-12-01T14:22:44.069Z,27.70
2022-12-01T14:26:11.713Z,30.42
2022-12-01T14:29:43.979Z,28.87
2022-12-01T14:32:47.196Z,28.48
2022-12-01T14:35:50.680Z,27.10
2022-12-01T14:38:59.840Z,31.57
2022-12-01T14:43:01.498Z,31.67
2022-12-01T14:46:10.519Z,32.72
2022-12-01T14:49:24.173Z,39.75
2022-12-01T14:52:27.119Z,32.88
2022-12-01T14:55:50.331Z,36.90
2022-12-01T14:58:57.409Z,44.38
2022-12-01T15:02:09.317Z,47.50
2022-12-01T15:05:26.027Z,36.30
2022-12-01T15:08:41.881Z,33.60
2022-12-01T15:11:58.820Z,49.00
2022-12-01T15:15:01.454Z,53.85
2022-12-01T15:18:21.884Z,52.70
2022-12-01T15:21:30.871Z,47.95
2022-12-01T15:24:34.279Z,50.83
2022-12-01T15:27:38.112Z,58.67
2022-12-01T15:30:42.877Z,56.28
2022-12-01T15:33:51.660Z,65.18
2022-12-01T15:36:56.220Z,107.28
2022-12-01T15:43:33.167Z,160.23
2022-12-01T15:46:35.787Z,119.37
2022-12-01T15:49:49.475Z,92.37
2022-12-01T15:52:52.358Z,112.12
2022-12-01T15:55:59.289Z,107.63
2022-12-01T15:59:09.967Z,101.37
2022-12-01T16:02:32.908Z,119.03
2022-12-01T16:08:39.272Z,91.63
2022-12-01T16:12:17.742Z,79.37
2022-12-01T16:15:22.921Z,72.03
2022-12-01T16:18:32.149Z,73.15
2022-12-01T16:21:47.476Z,70.50
2022-12-01T16:24:56.358Z,75.60
2022-12-01T16:28:01.588Z,70.90
2022-12-01T16:31:06.395Z,74.03
2022-12-01T16:34:44.089Z,78.03
2022-12-01T16:37:40.221Z,99.78
2022-12-01T16:40:44.323Z,94.10
2022-12-01T16:44:12.603Z,131.05
2022-12-01T16:47:14.950Z,121.73
2022-12-01T16:50:22.671Z,133.80
2022-12-01T16:53:26.480Z,128.50
2022-12-01T16:56:29.555Z,119.47
2022-12-01T16:59:32.677Z,106.03
2022-12-01T17:02:36.125Z,96.83
2022-12-01T17:05:41.346Z,103.78
2022-12-01T17:08:46.326Z,99.97
2022-12-01T17:11:49.187Z,101.97
2022-12-01T17:14:52.437Z,111.30
2022-12-01T17:17:55.461Z,108.40
2022-12-01T17:21:07.606Z,109.28
2022-12-01T17:24:10.167Z,127.10
2022-12-01T17:27:13.571Z,99.13
2022-12-01T17:30:17.075Z,124.35
2022-12-01T17:33:20.377Z,121.30
2022-12-01T17:36:27.654Z,128.05
2022-12-01T17:39:30.922Z,130.32
2022-12-01T17:42:34.534Z,139.07
2022-12-01T17:45:42.224Z,117.47
2022-12-01T17:48:46.769Z,112.40
2022-12-01T17:51:49.893Z,106.45
2022-12-01T17:54:52.856Z,113.50
2022-12-01T17:57:56.627Z,117.78
2022-12-01T18:01:00.708Z,128.65
2022-12-01T18:04:07.210Z,129.40
2022-12-01T18:07:10.313Z,133.52
2022-12-01T18:10:13.841Z,118.05
2022-12-01T18:13:20.345Z,113.90
2022-12-01T18:16:28.377Z,114.78
2022-12-01T18:19:32.812Z,117.17
2022-12-01T18:22:36.492Z,117.15
2022-12-01T18:25:40.440Z,102.87
2022-12-01T18:28:43.989Z,102.97
2022-12-01T18:31:47.828Z,88.18
2022-12-01T18:34:51.519Z,94.27
2022-12-01T18:37:54.624Z,89.10
2022-12-01T18:40:59.552Z,92.78
2022-12-01T18:44:03.403Z,81.72
2022-12-01T18:47:07.272Z,87.62
2022-12-01T18:50:10.625Z,88.77
2022-12-01T18:53:14.830Z,92.65
2022-12-01T18:56:20.666Z,86.53
2022-12-01T18:59:23.986Z,87.97
2022-12-01T19:02:27.204Z,75.55
2022-12-01T19:05:33.883Z,85.47
2022-12-01T19:08:36.912Z,86.20
2022-12-01T19:11:41.326Z,91.43
2022-12-01T19:24:11.682Z,79.90
2022-12-01T19:27:15.646Z,81.97
2022-12-01T19:30:20.028Z,77.30
2022-12-01T19:33:23.617Z,77.35
2022-12-01T19:36:29.837Z,79.70
2022-12-01T19:39:33.638Z,92.23
2022-12-01T19:42:37.350Z,129.12
2022-12-01T19:45:40.454Z,150.35
2022-12-01T19:48:43.897Z,118.97
2022-12-01T19:51:47.226Z,91.22
2022-12-01T19:54:51.622Z,103.43
2022-12-01T19:57:55.096Z,103.20
2022-12-01T20:01:06.565Z,99.70
2022-12-01T20:04:10.062Z,96.93
2022-12-01T20:07:13.410Z,86.87
2022-12-01T20:10:20.616Z,82.33
2022-12-01T20:13:23.750Z,80.62
2022-12-01T20:16:28.744Z,75.20
2022-12-01T20:19:31.953Z,85.30
2022-12-01T20:22:40.079Z,86.97
2022-12-01T20:25:44.100Z,75.83
2022-12-01T20:28:50.933Z,68.57
2022-12-01T20:31:55.868Z,73.35
2022-12-01T20:34:59.434Z,73.78
2022-12-01T20:38:02.601Z,71.22
2022-12-01T20:41:06.839Z,70.23
2022-12-01T20:44:10.976Z,68.10
2022-12-01T20:47:17.932Z,63.47
2022-12-01T20:50:24.410Z,69.25
2022-12-01T20:53:27.919Z,63.70
2022-12-01T20:56:31.314Z,65.60
2022-12-01T20:59:36.434Z,66.95
2022-12-01T21:02:39.690Z,74.00
2022-12-01T21:05:44.393Z,73.47
2022-12-01T21:08:48.506Z,70.55
2022-12-01T21:12:11.776Z,75.63
2022-12-01T21:15:30.243Z,75.90
2022-12-01T21:18:53.488Z,77.82
2022-12-01T21:21:56.488Z,75.45
2022-12-01T21:25:17.346Z,72.65
2022-12-01T21:28:25.591Z,79.30
2022-12-01T21:31:29.238Z,69.07
2022-12-01T21:34:34.958Z,70.20
2022-12-01T21:37:37.944Z,62.13
2022-12-01T21:40:43.960Z,68.93
2022-12-01T21:43:46.905Z,67.87
2022-12-01T21:46:58.086Z,68.87
2022-12-01T21:50:09.564Z,58.25
2022-12-01T21:53:19.306Z,69.10
2022-12-01T21:56:25.608Z,64.22
2022-12-01T21:59:28.206Z,70.20
2022-12-01T22:03:00.601Z,62.83
2022-12-01T22:06:30.180Z,66.40
2022-12-01T22:09:36.632Z,71.50
2022-12-01T22:12:39.532Z,80.80
2022-12-01T22:15:42.222Z,80.13
2022-12-01T22:18:52.250Z,75.35
2022-12-01T22:22:24.958Z,76.80
2022-12-01T22:25:28.616Z,80.05
2022-12-01T22:28:31.382Z,77.87
2022-12-01T22:31:36.279Z,79.65
2022-12-01T22:34:57.972Z,79.57
2022-12-01T22:38:21.696Z,80.03
2022-12-01T22:41:24.334Z,74.18
2022-12-01T22:44:30.695Z,79.77
2022-12-01T22:47:33.392Z,76.65
2022-12-01T22:50:37.435Z,71.45
2022-12-01T22:53:41.604Z,84.40
2022-12-01T22:56:46.724Z,73.57
2022-12-01T22:59:50.478Z,71.07
2022-12-01T23:02:55.903Z,71.97
2022-12-01T23:05:58.682Z,75.32
2022-12-01T23:09:02.059Z,78.87
2022-12-01T23:12:10.605Z,73.45
2022-12-01T23:15:25.630Z,75.80
2022-12-01T23:18:32.198Z,76.00
2022-12-01T23:21:35.656Z,78.65
2022-12-01T23:24:40.018Z,77.65
2022-12-01T23:27:46.255Z,82.60
2022-12-01T23:30:53.296Z,75.37
2022-12-01T23:33:56.239Z,80.32
2022-12-01T23:36:58.788Z,83.68
2022-12-01T23:40:08.106Z,75.22
2022-12-01T23:43:25.500Z,75.55
2022-12-01T23:46:28.671Z,81.00
2022-12-01T23:49:34.947Z,85.90
2022-12-01T23:52:41.875Z,79.90
2022-12-01T23:55:44.476Z,73.28
2022-12-01T23:58:49.078Z,78.03
